createdAt,value
2018-12-21T00:02:10.103Z,7.47
2018-12-21T00:04:36.736Z,1.98
2018-12-21T00:07:06.136Z,9.75
2018-12-21T00:09:35.530Z,1.80
2018-12-21T00:12:01.870Z,2.45
2018-12-21T00:14:28.230Z,2.80
2018-12-21T00:16:54.618Z,3.40
2018-12-21T00:19:20.970Z,5.67
2018-12-21T00:21:47.346Z,4.70
2018-12-21T00:24:13.716Z,2.75
2018-12-21T00:26:40.092Z,2.70
2018-12-21T00:29:06.446Z,4.33
2018-12-21T00:31:38.936Z,3.72
2018-12-21T00:34:18.245Z,2.50
2018-12-21T00:36:50.843Z,9.18
2018-12-21T00:39:23.380Z,5.72
2018-12-21T00:41:49.704Z,6.40
2018-12-21T00:44:18.235Z,5.12
2018-12-21T00:46:46.349Z,6.28
2018-12-21T00:49:20.650Z,2.00
2018-12-21T00:51:47.030Z,5.10
2018-12-21T00:54:13.386Z,7.05
2018-12-21T00:56:39.746Z,5.53
2018-12-21T00:59:06.136Z,6.87
2018-12-21T01:01:32.511Z,4.92
2018-12-21T01:03:58.896Z,4.45
2018-12-21T01:06:25.362Z,4.40
2018-12-21T01:08:51.846Z,3.80
2018-12-21T01:11:18.307Z,3.90
2018-12-21T01:13:44.884Z,5.20
2018-12-21T01:16:11.243Z,1.92
2018-12-21T01:18:37.723Z,3.25
2018-12-21T01:21:04.189Z,2.75
2018-12-21T01:23:30.557Z,2.25
2018-12-21T01:25:56.917Z,4.78
2018-12-21T01:28:23.250Z,5.28
2018-12-21T01:30:49.637Z,8.05
2018-12-21T01:33:15.970Z,4.72
2018-12-21T01:35:42.537Z,7.90
2018-12-21T01:38:08.883Z,9.38
2018-12-21T01:40:35.255Z,9.98
2018-12-21T01:43:01.586Z,2.10
2018-12-21T01:45:27.946Z,6.15
2018-12-21T01:47:54.382Z,2.60
2018-12-21T01:50:20.741Z,7.40
2018-12-21T01:52:47.110Z,4.35
2018-12-21T01:55:13.485Z,1.65
2018-12-21T01:57:39.813Z,7.10
2018-12-21T02:00:07.865Z,15.32
2018-12-21T02:02:34.251Z,2.90
2018-12-21T02:05:00.654Z,6.37
2018-12-21T02:07:27.006Z,9.63
2018-12-21T02:09:53.367Z,4.22
2018-12-21T02:12:19.727Z,2.55
2018-12-21T02:14:46.104Z,5.83
2018-12-21T02:17:12.491Z,4.37
2018-12-21T02:19:38.832Z,6.75
2018-12-21T02:22:05.198Z,4.60
2018-12-21T02:24:31.630Z,9.80
2018-12-21T02:26:57.999Z,8.00
2018-12-21T02:29:24.356Z,2.02
2018-12-21T02:31:57.614Z,6.50
2018-12-21T02:34:23.949Z,3.35
2018-12-21T02:36:50.382Z,4.75
2018-12-21T02:39:16.772Z,3.90
2018-12-21T02:41:43.118Z,4.00
2018-12-21T02:44:09.516Z,4.40
2018-12-21T02:46:35.864Z,4.75
2018-12-21T02:49:02.369Z,2.40
2018-12-21T02:51:28.723Z,3.92
2018-12-21T02:53:55.085Z,2.05
2018-12-21T02:56:21.436Z,3.25
2018-12-21T02:58:47.832Z,2.33
2018-12-21T03:01:14.177Z,4.92
2018-12-21T03:03:47.394Z,6.00
2018-12-21T03:06:13.767Z,4.62
2018-12-21T03:08:40.124Z,9.48
2018-12-21T03:11:06.489Z,2.35
2018-12-21T03:13:32.839Z,6.12
2018-12-21T03:15:59.187Z,3.90
2018-12-21T03:18:25.528Z,7.17
2018-12-21T03:20:51.926Z,4.45
2018-12-21T03:23:18.258Z,1.42
2018-12-21T03:25:44.623Z,2.25
2018-12-21T03:28:10.996Z,6.92
2018-12-21T03:30:37.393Z,3.12
2018-12-21T03:33:03.762Z,4.50
2018-12-21T03:35:30.148Z,1.95
2018-12-21T03:37:56.613Z,3.92
2018-12-21T03:40:22.978Z,2.40
2018-12-21T03:42:49.389Z,7.72
2018-12-21T03:45:15.959Z,5.97
2018-12-21T03:47:42.414Z,13.18
2018-12-21T03:50:08.880Z,4.08
2018-12-21T03:52:35.254Z,7.12
2018-12-21T03:55:01.617Z,5.05
2018-12-21T03:57:27.986Z,4.08
2018-12-21T04:00:01.341Z,8.68
2018-12-21T04:02:27.711Z,10.13
2018-12-21T04:04:54.073Z,2.72
2018-12-21T04:07:20.547Z,4.53
2018-12-21T04:09:53.815Z,8.90
2018-12-21T04:12:20.199Z,8.15
2018-12-21T04:14:46.563Z,3.83
2018-12-21T04:17:13.009Z,4.37
2018-12-21T04:19:39.369Z,4.25
2018-12-21T04:22:05.723Z,7.78
2018-12-21T04:24:32.089Z,7.80
2018-12-21T04:26:58.427Z,5.53
2018-12-21T04:29:24.817Z,2.58
2018-12-21T04:31:51.329Z,12.37
2018-12-21T04:34:17.708Z,5.33
2018-12-21T04:36:44.079Z,2.25
2018-12-21T04:39:10.456Z,3.00
2018-12-21T04:41:36.785Z,2.70
2018-12-21T04:44:03.183Z,2.65
2018-12-21T04:46:29.538Z,2.60
2018-12-21T04:48:55.891Z,8.53
2018-12-21T04:51:22.246Z,2.75
2018-12-21T04:53:48.604Z,3.92
2018-12-21T04:56:14.976Z,2.10
2018-12-21T04:58:41.318Z,4.35
2018-12-21T05:01:07.696Z,6.85
2018-12-21T05:03:34.045Z,4.15
2018-12-21T05:06:00.434Z,2.40
2018-12-21T05:08:26.804Z,3.50
2018-12-21T05:10:53.175Z,2.42
2018-12-21T05:13:19.550Z,2.83
2018-12-21T05:15:45.912Z,1.98
2018-12-21T05:18:12.414Z,1.77
2018-12-21T05:20:38.923Z,4.55
2018-12-21T05:23:05.435Z,2.80
2018-12-21T05:25:31.786Z,7.03
2018-12-21T05:27:58.155Z,1.47
2018-12-21T05:30:24.570Z,1.40
2018-12-21T05:32:50.946Z,1.82
2018-12-21T05:35:17.308Z,8.68
2018-12-21T05:37:43.674Z,4.30
2018-12-21T05:40:10.179Z,2.67
2018-12-21T05:42:36.530Z,2.25
2018-12-21T05:45:04.152Z,2.20
2018-12-21T05:47:30.522Z,2.90
2018-12-21T05:49:56.903Z,7.50
2018-12-21T05:52:23.238Z,5.10
2018-12-21T05:54:49.618Z,1.40
2018-12-21T05:57:15.978Z,6.05
2018-12-21T05:59:42.354Z,7.83
2018-12-21T06:02:08.838Z,1.00
2018-12-21T06:04:35.319Z,1.90
2018-12-21T06:07:01.694Z,3.75
2018-12-21T06:09:28.045Z,1.92
2018-12-21T06:11:54.447Z,1.80
2018-12-21T06:14:20.814Z,1.17
2018-12-21T06:16:47.190Z,1.55
2018-12-21T06:19:13.574Z,4.10
2018-12-21T06:21:39.974Z,3.92
2018-12-21T06:24:06.347Z,1.05
2018-12-21T06:26:32.749Z,1.85
2018-12-21T06:28:59.109Z,2.50
2018-12-21T06:31:25.485Z,2.40
2018-12-21T06:33:51.903Z,1.20
2018-12-21T06:36:18.271Z,1.02
2018-12-21T06:38:44.790Z,0.82
2018-12-21T06:41:17.974Z,0.78
2018-12-21T06:43:44.346Z,1.90
2018-12-21T06:46:14.242Z,1.02
2018-12-21T06:48:39.118Z,1.10
2018-12-21T06:51:05.478Z,0.60
2018-12-21T06:53:31.882Z,0.90
2018-12-21T06:55:58.231Z,1.50
2018-12-21T06:58:24.623Z,4.25
2018-12-21T07:00:51.000Z,1.20
2018-12-21T07:03:17.533Z,0.70
2018-12-21T07:05:43.980Z,1.07
2018-12-21T07:08:10.357Z,0.80
2018-12-21T07:10:36.732Z,5.47
2018-12-21T07:13:03.138Z,1.30
2018-12-21T07:15:29.535Z,1.92
2018-12-21T07:17:55.967Z,0.80
2018-12-21T07:20:22.435Z,1.20
2018-12-21T07:22:48.779Z,5.08
2018-12-21T07:25:15.290Z,1.42
2018-12-21T07:27:41.782Z,1.95
2018-12-21T07:30:08.474Z,1.37
2018-12-21T07:32:34.822Z,1.37
2018-12-21T07:35:01.229Z,3.35
2018-12-21T07:37:34.610Z,2.33
2018-12-21T07:40:01.017Z,1.32
2018-12-21T07:42:27.358Z,1.42
2018-12-21T07:44:53.740Z,1.35
2018-12-21T07:47:20.131Z,1.65
2018-12-21T07:49:46.510Z,3.90
2018-12-21T07:52:12.899Z,0.70
2018-12-21T07:54:39.254Z,1.37
2018-12-21T07:57:05.803Z,2.67
2018-12-21T07:59:32.299Z,1.90
2018-12-21T08:01:58.765Z,4.28
2018-12-21T08:04:25.144Z,4.65
2018-12-21T08:06:51.535Z,3.30
2018-12-21T08:09:17.930Z,1.85
2018-12-21T08:11:44.339Z,4.22
2018-12-21T08:14:10.685Z,1.92
2018-12-21T08:16:37.076Z,1.77
2018-12-21T08:19:03.456Z,10.15
2018-12-21T08:21:29.837Z,3.62
2018-12-21T08:23:56.219Z,3.17
2018-12-21T08:26:29.506Z,2.62
2018-12-21T08:28:55.854Z,2.37
2018-12-21T08:31:22.243Z,2.58
2018-12-21T08:33:48.606Z,3.02
2018-12-21T08:36:15.114Z,2.80
2018-12-21T08:38:41.487Z,3.65
2018-12-21T08:41:07.846Z,1.90
2018-12-21T08:43:34.251Z,3.05
2018-12-21T08:46:00.617Z,2.37
2018-12-21T08:48:26.997Z,3.17
2018-12-21T08:50:53.418Z,8.83
2018-12-21T08:53:19.895Z,6.65
2018-12-21T08:55:46.284Z,12.65
2018-12-21T08:58:12.671Z,6.15
2018-12-21T09:00:39.030Z,10.48
2018-12-21T09:03:05.403Z,7.42
2018-12-21T09:05:31.747Z,8.95
2018-12-21T09:07:58.134Z,10.03
2018-12-21T09:10:24.494Z,7.25
2018-12-21T09:12:50.877Z,3.45
2018-12-21T09:15:17.373Z,5.15
2018-12-21T09:17:43.736Z,8.23
2018-12-21T09:20:10.128Z,1.50
2018-12-21T09:22:36.491Z,5.72
2018-12-21T09:25:04.126Z,2.60
2018-12-21T09:27:30.535Z,3.02
2018-12-21T09:29:56.890Z,1.92
2018-12-21T09:32:23.249Z,2.30
2018-12-21T09:34:49.638Z,2.42
2018-12-21T09:37:16.026Z,17.55
2018-12-21T09:39:42.391Z,1.82
2018-12-21T09:42:08.852Z,3.20
2018-12-21T09:44:35.215Z,1.87
2018-12-21T09:47:01.636Z,3.20
2018-12-21T09:49:28.002Z,2.30
2018-12-21T09:51:54.396Z,8.88
2018-12-21T09:54:20.760Z,4.20
2018-12-21T09:56:47.134Z,2.87
2018-12-21T09:59:13.586Z,3.47
2018-12-21T10:01:40.006Z,4.55
2018-12-21T10:04:07.401Z,2.60
2018-12-21T10:06:33.888Z,6.45
2018-12-21T10:09:05.040Z,8.23
2018-12-21T10:11:31.622Z,7.55
2018-12-21T10:13:57.954Z,6.90
2018-12-21T10:16:24.331Z,3.83
2018-12-21T10:18:50.695Z,6.50
2018-12-21T10:21:17.107Z,2.10
2018-12-21T10:23:50.447Z,6.50
2018-12-21T10:26:16.811Z,1.80
2018-12-21T10:28:43.147Z,1.92
2018-12-21T10:31:09.524Z,4.17
2018-12-21T10:33:35.983Z,3.33
2018-12-21T10:36:02.370Z,2.00
2018-12-21T10:38:28.774Z,2.55
2018-12-21T10:40:55.206Z,2.12
2018-12-21T10:43:21.744Z,2.42
2018-12-21T10:45:48.111Z,3.98
2018-12-21T10:48:14.486Z,3.45
2018-12-21T10:50:40.834Z,1.40
2018-12-21T10:53:07.237Z,2.25
2018-12-21T10:55:33.914Z,1.15
2018-12-21T10:58:00.290Z,3.40
2018-12-21T11:00:26.830Z,0.90
2018-12-21T11:02:53.224Z,1.07
2018-12-21T11:05:19.595Z,0.60
2018-12-21T11:07:45.979Z,0.50
2018-12-21T11:10:12.478Z,0.60
2018-12-21T11:12:39.034Z,0.53
2018-12-21T11:15:05.568Z,0.55
2018-12-21T11:17:31.926Z,1.12
2018-12-21T11:19:58.320Z,0.50
2018-12-21T11:22:24.688Z,1.10
2018-12-21T11:24:51.079Z,0.50
2018-12-21T11:27:17.443Z,1.22
2018-12-21T11:29:43.836Z,3.20
2018-12-21T11:32:10.271Z,1.00
2018-12-21T11:34:36.774Z,1.62
2018-12-21T11:37:03.307Z,0.70
2018-12-21T11:39:29.667Z,2.03
2018-12-21T11:41:56.065Z,1.27
2018-12-21T11:44:22.431Z,1.40
2018-12-21T11:46:48.831Z,1.10
2018-12-21T11:49:15.216Z,0.70
2018-12-21T11:51:41.589Z,0.60
2018-12-21T11:54:07.955Z,1.10
2018-12-21T11:56:34.343Z,0.77
2018-12-21T11:59:00.704Z,2.23
2018-12-21T12:01:27.074Z,0.90
2018-12-21T12:03:53.428Z,0.80
2018-12-21T12:06:19.803Z,0.80
2018-12-21T12:08:46.391Z,0.77
2018-12-21T12:11:12.750Z,3.23
2018-12-21T12:13:39.124Z,1.90
2018-12-21T12:16:05.610Z,3.80
2018-12-21T12:18:32.119Z,1.13
2018-12-21T12:20:58.479Z,0.87
2018-12-21T12:23:25.001Z,0.87
2018-12-21T12:25:51.359Z,1.00
2018-12-21T12:28:17.740Z,1.20
2018-12-21T12:30:44.116Z,1.33
2018-12-21T12:33:10.491Z,0.80
2018-12-21T12:35:36.841Z,2.13
2018-12-21T12:38:03.265Z,0.80
2018-12-21T12:40:29.747Z,5.13
2018-12-21T12:43:03.239Z,0.90
2018-12-21T12:45:29.640Z,4.07
2018-12-21T12:47:56.112Z,1.17
2018-12-21T12:50:22.625Z,4.93
2018-12-21T12:52:49.040Z,0.50
2018-12-21T12:55:15.567Z,1.00
2018-12-21T12:57:41.952Z,1.60
2018-12-21T13:00:09.712Z,0.87
2018-12-21T13:02:36.099Z,2.17
2018-12-21T13:08:01.033Z,0.90
2018-12-21T13:10:27.421Z,0.90
2018-12-21T13:12:53.916Z,1.23
2018-12-21T13:15:20.294Z,1.17
2018-12-21T13:17:46.754Z,1.33
2018-12-21T13:20:13.158Z,2.40
2018-12-21T13:22:39.543Z,2.00
2018-12-21T13:25:11.333Z,1.40
2018-12-21T13:27:34.358Z,1.00
2018-12-21T13:30:00.815Z,0.70
2018-12-21T13:32:27.199Z,2.33
2018-12-21T13:34:53.554Z,1.10
2018-12-21T13:37:19.949Z,1.67
2018-12-21T13:39:46.303Z,1.13
2018-12-21T13:42:12.673Z,2.33
2018-12-21T13:44:39.051Z,1.77
2018-12-21T13:47:05.414Z,1.20
2018-12-21T13:49:31.753Z,0.70
2018-12-21T13:51:58.147Z,1.57
2018-12-21T13:54:24.535Z,1.60
2018-12-21T13:56:50.937Z,3.77
2018-12-21T13:59:17.305Z,1.53
2018-12-21T14:01:43.655Z,1.00
2018-12-21T14:04:10.033Z,1.60
2018-12-21T14:06:36.410Z,1.40
2018-12-21T14:09:05.237Z,1.27
2018-12-21T14:11:31.605Z,1.10
2018-12-21T14:13:57.993Z,0.87
2018-12-21T14:16:24.390Z,1.63
2018-12-21T14:18:50.782Z,0.80
2018-12-21T14:21:17.141Z,0.60
2018-12-21T14:23:43.552Z,1.47
2018-12-21T14:26:09.986Z,1.80
2018-12-21T14:28:36.479Z,2.27
2018-12-21T14:31:02.887Z,0.80
2018-12-21T14:33:29.263Z,0.70
2018-12-21T14:35:55.663Z,1.73
2018-12-21T14:38:22.051Z,1.57
2018-12-21T14:40:48.426Z,5.80
2018-12-21T14:43:21.655Z,1.23
2018-12-21T14:45:48.070Z,2.17
2018-12-21T14:48:14.449Z,0.60
2018-12-21T14:50:40.835Z,1.10
2018-12-21T14:53:07.211Z,1.77
2018-12-21T14:55:37.493Z,1.10
2018-12-21T14:58:02.018Z,2.13
2018-12-21T15:00:28.540Z,1.40
2018-12-21T15:02:54.932Z,2.10
2018-12-21T15:05:21.464Z,0.80
2018-12-21T15:07:47.955Z,0.80
2018-12-21T15:10:14.346Z,1.57
2018-12-21T15:12:40.800Z,0.67
2018-12-21T15:15:07.360Z,1.70
2018-12-21T15:17:33.763Z,1.27
2018-12-21T15:20:00.169Z,4.63
2018-12-21T15:22:26.635Z,1.70
2018-12-21T15:24:53.027Z,5.00
2018-12-21T15:27:19.519Z,3.70
2018-12-21T15:29:45.871Z,4.00
2018-12-21T15:32:12.247Z,4.47
2018-12-21T15:34:38.655Z,7.10
2018-12-21T15:37:05.070Z,6.23
2018-12-21T15:39:31.426Z,3.67
2018-12-21T15:41:57.791Z,11.22
2018-12-21T15:44:24.160Z,10.53
2018-12-21T15:46:50.518Z,4.95
2018-12-21T15:49:16.899Z,6.27
2018-12-21T15:51:43.279Z,5.05
2018-12-21T15:54:09.687Z,10.23
2018-12-21T15:56:36.049Z,10.10
2018-12-21T15:59:02.587Z,6.57
2018-12-21T16:01:36.569Z,10.43
2018-12-21T16:03:57.387Z,10.90
2018-12-21T16:06:23.763Z,7.90
2018-12-21T16:08:50.159Z,9.55
2018-12-21T16:11:16.542Z,10.25
2018-12-21T16:13:42.943Z,7.40
2018-12-21T16:16:09.341Z,11.73
2018-12-21T16:18:35.746Z,13.65
2018-12-21T16:21:02.172Z,7.90
2018-12-21T16:23:28.535Z,7.47
2018-12-21T16:26:03.567Z,10.43
2018-12-21T16:28:30.333Z,5.35
2018-12-21T16:30:56.752Z,8.53
2018-12-21T16:33:23.149Z,12.50
2018-12-21T16:35:49.535Z,13.38
2018-12-21T16:38:16.090Z,12.53
2018-12-21T16:40:42.619Z,21.52
2018-12-21T16:43:08.975Z,15.00
2018-12-21T16:45:35.394Z,9.23
2018-12-21T16:48:01.767Z,10.43
2018-12-21T16:50:28.247Z,8.03
2018-12-21T16:52:54.636Z,6.97
2018-12-21T16:55:21.034Z,11.90
2018-12-21T16:57:47.437Z,17.57
2018-12-21T17:00:13.848Z,13.55
2018-12-21T17:02:47.369Z,10.32
2018-12-21T17:05:13.878Z,17.57
2018-12-21T17:07:40.311Z,23.40
2018-12-21T17:10:09.227Z,16.50
2018-12-21T17:12:35.847Z,19.15
2018-12-21T17:15:03.609Z,10.15
2018-12-21T17:17:32.035Z,20.72
2018-12-21T17:19:58.447Z,11.83
2018-12-21T17:22:25.418Z,12.13
2018-12-21T17:24:51.806Z,12.63
2018-12-21T17:27:18.170Z,20.70
2018-12-21T17:29:44.677Z,17.75
2018-12-21T17:32:11.057Z,26.77
2018-12-21T17:34:37.482Z,21.27
2018-12-21T17:37:03.916Z,23.98
2018-12-21T17:39:30.542Z,16.75
2018-12-21T17:41:56.906Z,14.35
2018-12-21T17:44:23.313Z,19.05
2018-12-21T17:46:49.703Z,14.85
2018-12-21T17:49:16.246Z,13.98
2018-12-21T17:51:42.974Z,23.73
2018-12-21T17:54:10.175Z,14.83
2018-12-21T17:56:36.564Z,20.15
2018-12-21T17:59:03.060Z,19.12
2018-12-21T18:01:29.822Z,16.65
2018-12-21T18:03:57.844Z,15.85
2018-12-21T18:06:24.240Z,10.25
2018-12-21T18:08:51.250Z,18.50
2018-12-21T18:11:17.636Z,24.02
2018-12-21T18:13:44.048Z,11.95
2018-12-21T18:16:12.001Z,17.70
2018-12-21T18:18:39.482Z,20.10
2018-12-21T18:21:05.850Z,12.07
2018-12-21T18:23:33.942Z,19.02
2018-12-21T18:26:00.301Z,17.45
2018-12-21T18:28:28.147Z,16.55
2018-12-21T18:30:57.578Z,22.10
2018-12-21T18:33:24.090Z,18.57
2018-12-21T18:35:50.470Z,13.15
2018-12-21T18:38:16.877Z,12.20
2018-12-21T18:40:43.367Z,17.25
2018-12-21T18:43:09.887Z,20.55
2018-12-21T18:45:36.275Z,14.93
2018-12-21T18:48:02.775Z,22.27
2018-12-21T18:50:29.175Z,20.45
2018-12-21T18:52:55.567Z,18.17
2018-12-21T18:55:21.988Z,27.77
2018-12-21T18:57:48.414Z,21.82
2018-12-21T19:00:15.007Z,26.70
2018-12-21T19:02:41.525Z,23.92
2018-12-21T19:05:14.926Z,16.42
2018-12-21T19:07:41.316Z,17.32
2018-12-21T19:10:07.725Z,20.23
2018-12-21T19:12:34.158Z,10.38
2018-12-21T19:15:00.551Z,33.02
2018-12-21T19:17:26.910Z,17.82
2018-12-21T19:19:53.311Z,21.48
2018-12-21T19:22:19.676Z,18.80
2018-12-21T19:24:46.126Z,20.25
2018-12-21T19:27:12.506Z,13.45
2018-12-21T19:29:38.874Z,16.32
2018-12-21T19:32:05.276Z,27.82
2018-12-21T19:34:31.660Z,17.20
2018-12-21T19:37:04.981Z,15.83
2018-12-21T19:39:31.353Z,17.60
2018-12-21T19:41:57.742Z,28.10
2018-12-21T19:44:24.113Z,27.93
2018-12-21T19:46:50.655Z,13.65
2018-12-21T19:49:24.030Z,20.92
2018-12-21T19:51:50.429Z,24.30
2018-12-21T19:54:16.791Z,19.70
2018-12-21T19:56:53.887Z,23.25
2018-12-21T19:59:20.259Z,18.02
2018-12-21T20:01:46.668Z,16.27
2018-12-21T20:04:13.039Z,26.42
2018-12-21T20:06:39.465Z,18.25
2018-12-21T20:09:05.980Z,17.48
2018-12-21T20:11:32.351Z,16.30
2018-12-21T20:13:58.848Z,20.12
2018-12-21T20:16:25.219Z,22.77
2018-12-21T20:18:51.628Z,15.88
2018-12-21T20:21:18.024Z,19.70
2018-12-21T20:23:44.812Z,25.85
2018-12-21T20:26:11.177Z,13.65
2018-12-21T20:28:37.570Z,15.60
2018-12-21T20:31:04.185Z,23.35
2018-12-21T20:33:30.588Z,26.90
2018-12-21T20:35:56.962Z,23.87
2018-12-21T20:38:23.376Z,18.75
2018-12-21T20:40:49.794Z,24.35
2018-12-21T20:43:16.181Z,25.30
2018-12-21T20:45:42.561Z,17.40
2018-12-21T20:48:08.927Z,13.95
2018-12-21T20:50:42.504Z,14.20
2018-12-21T20:53:08.983Z,20.55
2018-12-21T20:55:35.393Z,21.05
2018-12-21T20:58:03.012Z,27.32
2018-12-21T21:00:29.406Z,13.85
2018-12-21T21:02:55.806Z,23.02
2018-12-21T21:05:22.201Z,15.93
2018-12-21T21:07:48.575Z,18.23
2018-12-21T21:10:14.970Z,20.55
2018-12-21T21:12:41.347Z,21.77
2018-12-21T21:15:10.274Z,19.10
2018-12-21T21:17:36.636Z,26.42
2018-12-21T21:20:09.418Z,19.73
2018-12-21T21:22:35.779Z,22.35
2018-12-21T21:25:03.386Z,18.48
2018-12-21T21:27:30.456Z,35.03
2018-12-21T21:29:58.788Z,21.12
2018-12-21T21:32:25.504Z,31.62
2018-12-21T21:34:51.875Z,22.82
2018-12-21T21:37:18.258Z,17.25
2018-12-21T21:39:44.616Z,26.57
2018-12-21T21:42:12.063Z,24.50
2018-12-21T21:44:38.757Z,19.65
2018-12-21T21:47:05.169Z,25.05
2018-12-21T21:49:31.567Z,21.82
2018-12-21T21:51:57.999Z,19.37
2018-12-21T21:54:24.397Z,27.13
2018-12-21T21:56:50.789Z,14.30
2018-12-21T21:59:17.184Z,24.63
2018-12-21T22:01:44.599Z,23.60
2018-12-21T22:04:10.985Z,23.55
2018-12-21T22:06:37.401Z,18.45
2018-12-21T22:09:04.873Z,18.92
2018-12-21T22:11:38.232Z,11.18
2018-12-21T22:14:04.637Z,27.67
2018-12-21T22:16:31.007Z,16.10
2018-12-21T22:18:57.403Z,26.30
2018-12-21T22:21:24.366Z,23.27
2018-12-21T22:23:50.748Z,26.55
2018-12-21T22:26:17.124Z,24.75
2018-12-21T22:28:43.642Z,24.80
2018-12-21T22:31:10.005Z,20.77
2018-12-21T22:33:37.290Z,25.50
2018-12-21T22:36:03.672Z,22.73
2018-12-21T22:38:30.055Z,15.95
2018-12-21T22:40:56.466Z,26.87
2018-12-21T22:43:22.876Z,21.73
2018-12-21T22:45:49.278Z,13.32
2018-12-21T22:48:15.659Z,29.40
2018-12-21T22:50:42.091Z,24.02
2018-12-21T22:53:08.478Z,20.25
2018-12-21T22:55:34.880Z,26.85
2018-12-21T22:58:01.271Z,18.77
2018-12-21T23:00:29.720Z,28.87
2018-12-21T23:02:56.136Z,22.25
2018-12-21T23:05:22.540Z,20.02
2018-12-21T23:07:48.910Z,18.60
2018-12-21T23:10:15.288Z,17.98
2018-12-21T23:12:41.720Z,12.13
2018-12-21T23:15:08.215Z,18.62
2018-12-21T23:17:34.689Z,28.52
2018-12-21T23:20:01.187Z,24.75
2018-12-21T23:22:27.636Z,17.27
2018-12-21T23:24:54.068Z,14.40
2018-12-21T23:27:20.606Z,25.27
2018-12-21T23:29:47.079Z,18.15
2018-12-21T23:32:13.608Z,17.32
2018-12-21T23:34:40.046Z,21.80
2018-12-21T23:37:06.453Z,16.97
2018-12-21T23:39:32.835Z,25.02
2018-12-21T23:41:59.267Z,21.27
2018-12-21T23:44:26.804Z,15.70
2018-12-21T23:46:53.210Z,15.53
2018-12-21T23:49:20.439Z,19.32
2018-12-21T23:51:46.855Z,18.17
2018-12-21T23:54:13.289Z,30.25
2018-12-21T23:56:39.662Z,18.67
2018-12-21T23:59:06.095Z,20.20
